sensor_id;sensor_type;location;lat;lon;timestamp;P1;durP1;ratioP1;P2;durP2;ratioP2
14470;SDS011;7321;50.802;4.336;2023-05-07T00:00:15;8.18;;;3.95;;
14470;SDS011;7321;50.802;4.336;2023-05-07T00:02:46;6.28;;;3.63;;
14470;SDS011;7321;50.802;4.336;2023-05-07T00:05:15;8.32;;;3.58;;
14470;SDS011;7321;50.802;4.336;2023-05-07T00:07:43;8.68;;;4.07;;
14470;SDS011;7321;50.802;4.336;2023-05-07T00:10:10;7.10;;;4.35;;
14470;SDS011;7321;50.802;4.336;2023-05-07T00:12:38;7.75;;;4.03;;
14470;SDS011;7321;50.802;4.336;2023-05-07T00:15:04;7.68;;;3.92;;
14470;SDS011;7321;50.802;4.336;2023-05-07T00:17:32;5.90;;;3.50;;
14470;SDS011;7321;50.802;4.336;2023-05-07T00:19:59;8.65;;;3.83;;
14470;SDS011;7321;50.802;4.336;2023-05-07T00:22:25;8.68;;;3.65;;
14470;SDS011;7321;50.802;4.336;2023-05-07T00:24:53;5.82;;;3.78;;
14470;SDS011;7321;50.802;4.336;2023-05-07T00:27:20;7.07;;;3.83;;
14470;SDS011;7321;50.802;4.336;2023-05-07T00:29:46;7.43;;;4.10;;
14470;SDS011;7321;50.802;4.336;2023-05-07T00:32:16;6.68;;;3.90;;
14470;SDS011;7321;50.802;4.336;2023-05-07T00:34:43;6.88;;;4.45;;
14470;SDS011;7321;50.802;4.336;2023-05-07T00:37:10;6.05;;;3.70;;
14470;SDS011;7321;50.802;4.336;2023-05-07T00:39:40;7.65;;;4.20;;
14470;SDS011;7321;50.802;4.336;2023-05-07T00:42:07;6.15;;;4.10;;
14470;SDS011;7321;50.802;4.336;2023-05-07T00:44:35;5.78;;;3.75;;
14470;SDS011;7321;50.802;4.336;2023-05-07T00:47:03;7.32;;;3.80;;
14470;SDS011;7321;50.802;4.336;2023-05-07T00:49:37;4.53;;;3.60;;
14470;SDS011;7321;50.802;4.336;2023-05-07T00:52:10;8.65;;;4.28;;
14470;SDS011;7321;50.802;4.336;2023-05-07T00:54:40;3.90;;;3.50;;
14470;SDS011;7321;50.802;4.336;2023-05-07T00:57:09;6.63;;;4.20;;
14470;SDS011;7321;50.802;4.336;2023-05-07T00:59:40;10.80;;;4.28;;
14470;SDS011;7321;50.802;4.336;2023-05-07T01:02:12;7.95;;;4.28;;
14470;SDS011;7321;50.802;4.336;2023-05-07T01:04:43;6.60;;;4.10;;
14470;SDS011;7321;50.802;4.336;2023-05-07T01:07:11;7.20;;;4.07;;
14470;SDS011;7321;50.802;4.336;2023-05-07T01:09:38;8.93;;;4.50;;
14470;SDS011;7321;50.802;4.336;2023-05-07T01:12:06;8.52;;;3.83;;
14470;SDS011;7321;50.802;4.336;2023-05-07T01:14:34;8.15;;;4.07;;
14470;SDS011;7321;50.802;4.336;2023-05-07T01:17:00;5.38;;;3.70;;
14470;SDS011;7321;50.802;4.336;2023-05-07T01:19:26;5.85;;;3.92;;
14470;SDS011;7321;50.802;4.336;2023-05-07T01:21:56;7.38;;;3.90;;
14470;SDS011;7321;50.802;4.336;2023-05-07T01:24:35;11.23;;;4.28;;
14470;SDS011;7321;50.802;4.336;2023-05-07T01:27:03;9.18;;;4.30;;
14470;SDS011;7321;50.802;4.336;2023-05-07T01:29:30;8.02;;;3.90;;
14470;SDS011;7321;50.802;4.336;2023-05-07T01:31:57;7.75;;;4.30;;
14470;SDS011;7321;50.802;4.336;2023-05-07T01:34:28;4.78;;;3.63;;
14470;SDS011;7321;50.802;4.336;2023-05-07T01:36:58;5.43;;;3.50;;
14470;SDS011;7321;50.802;4.336;2023-05-07T01:39:26;7.30;;;3.97;;
14470;SDS011;7321;50.802;4.336;2023-05-07T01:41:55;7.78;;;3.72;;
14470;SDS011;7321;50.802;4.336;2023-05-07T01:44:23;9.27;;;3.90;;
14470;SDS011;7321;50.802;4.336;2023-05-07T01:46:52;9.25;;;4.22;;
14470;SDS011;7321;50.802;4.336;2023-05-07T01:49:20;8.45;;;4.05;;
14470;SDS011;7321;50.802;4.336;2023-05-07T01:51:47;4.63;;;3.80;;
14470;SDS011;7321;50.802;4.336;2023-05-07T01:54:15;8.32;;;4.38;;
14470;SDS011;7321;50.802;4.336;2023-05-07T01:56:43;8.13;;;4.40;;
14470;SDS011;7321;50.802;4.336;2023-05-07T01:59:10;9.13;;;4.30;;
14470;SDS011;7321;50.802;4.336;2023-05-07T02:01:36;7.10;;;4.20;;
14470;SDS011;7321;50.802;4.336;2023-05-07T02:04:04;5.97;;;3.78;;
14470;SDS011;7321;50.802;4.336;2023-05-07T02:06:32;9.15;;;4.18;;
14470;SDS011;7321;50.802;4.336;2023-05-07T02:09:00;8.07;;;4.35;;
14470;SDS011;7321;50.802;4.336;2023-05-07T02:11:27;8.77;;;4.60;;
14470;SDS011;7321;50.802;4.336;2023-05-07T02:13:54;7.03;;;3.95;;
14470;SDS011;7321;50.802;4.336;2023-05-07T02:16:22;8.07;;;4.45;;
14470;SDS011;7321;50.802;4.336;2023-05-07T02:18:49;10.80;;;4.80;;
14470;SDS011;7321;50.802;4.336;2023-05-07T02:21:15;6.85;;;4.13;;
14470;SDS011;7321;50.802;4.336;2023-05-07T02:23:43;7.30;;;4.20;;
14470;SDS011;7321;50.802;4.336;2023-05-07T02:26:10;7.97;;;4.15;;
14470;SDS011;7321;50.802;4.336;2023-05-07T02:28:40;9.15;;;4.85;;
14470;SDS011;7321;50.802;4.336;2023-05-07T02:31:06;8.88;;;4.75;;
14470;SDS011;7321;50.802;4.336;2023-05-07T02:33:35;6.65;;;4.28;;
14470;SDS011;7321;50.802;4.336;2023-05-07T02:36:10;8.68;;;4.13;;
14470;SDS011;7321;50.802;4.336;2023-05-07T02:38:37;9.35;;;4.55;;
14470;SDS011;7321;50.802;4.336;2023-05-07T02:41:05;6.32;;;4.30;;
14470;SDS011;7321;50.802;4.336;2023-05-07T02:43:34;7.78;;;4.03;;
14470;SDS011;7321;50.802;4.336;2023-05-07T02:46:06;8.48;;;4.65;;
14470;SDS011;7321;50.802;4.336;2023-05-07T02:48:35;10.43;;;4.53;;
14470;SDS011;7321;50.802;4.336;2023-05-07T02:51:02;8.43;;;4.57;;
14470;SDS011;7321;50.802;4.336;2023-05-07T02:53:30;7.53;;;4.57;;
14470;SDS011;7321;50.802;4.336;2023-05-07T02:55:58;9.93;;;4.78;;
14470;SDS011;7321;50.802;4.336;2023-05-07T02:58:27;5.20;;;3.80;;
14470;SDS011;7321;50.802;4.336;2023-05-07T03:00:55;6.22;;;4.47;;
14470;SDS011;7321;50.802;4.336;2023-05-07T03:03:24;5.30;;;4.25;;
14470;SDS011;7321;50.802;4.336;2023-05-07T03:05:52;6.20;;;4.50;;
14470;SDS011;7321;50.802;4.336;2023-05-07T03:08:20;7.45;;;4.28;;
14470;SDS011;7321;50.802;4.336;2023-05-07T03:10:47;8.63;;;4.40;;
14470;SDS011;7321;50.802;4.336;2023-05-07T03:13:14;7.25;;;3.90;;
14470;SDS011;7321;50.802;4.336;2023-05-07T03:15:40;8.35;;;4.45;;
14470;SDS011;7321;50.802;4.336;2023-05-07T03:18:08;6.85;;;3.90;;
14470;SDS011;7321;50.802;4.336;2023-05-07T03:20:38;8.73;;;4.22;;
14470;SDS011;7321;50.802;4.336;2023-05-07T03:23:04;7.07;;;4.22;;
14470;SDS011;7321;50.802;4.336;2023-05-07T03:25:32;7.55;;;4.07;;
14470;SDS011;7321;50.802;4.336;2023-05-07T03:28:01;5.82;;;3.63;;
14470;SDS011;7321;50.802;4.336;2023-05-07T03:30:27;6.43;;;4.25;;
14470;SDS011;7321;50.802;4.336;2023-05-07T03:32:54;9.40;;;4.65;;
14470;SDS011;7321;50.802;4.336;2023-05-07T03:35:20;5.70;;;3.83;;
14470;SDS011;7321;50.802;4.336;2023-05-07T03:37:47;5.88;;;4.22;;
14470;SDS011;7321;50.802;4.336;2023-05-07T03:40:15;5.13;;;4.10;;
14470;SDS011;7321;50.802;4.336;2023-05-07T03:42:42;11.02;;;4.85;;
14470;SDS011;7321;50.802;4.336;2023-05-07T03:45:09;6.15;;;4.28;;
14470;SDS011;7321;50.802;4.336;2023-05-07T03:47:36;6.25;;;4.40;;
14470;SDS011;7321;50.802;4.336;2023-05-07T03:50:05;7.80;;;4.00;;
14470;SDS011;7321;50.802;4.336;2023-05-07T03:52:34;7.07;;;4.82;;
14470;SDS011;7321;50.802;4.336;2023-05-07T03:55:01;5.90;;;4.32;;
14470;SDS011;7321;50.802;4.336;2023-05-07T03:57:27;8.43;;;4.30;;
14470;SDS011;7321;50.802;4.336;2023-05-07T03:59:55;9.50;;;4.53;;
14470;SDS011;7321;50.802;4.336;2023-05-07T04:02:23;5.13;;;4.40;;
14470;SDS011;7321;50.802;4.336;2023-05-07T04:04:49;6.55;;;3.92;;
14470;SDS011;7321;50.802;4.336;2023-05-07T04:07:16;6.05;;;4.30;;
14470;SDS011;7321;50.802;4.336;2023-05-07T04:09:43;7.72;;;3.95;;
14470;SDS011;7321;50.802;4.336;2023-05-07T04:12:10;7.57;;;3.75;;
14470;SDS011;7321;50.802;4.336;2023-05-07T04:14:38;6.22;;;4.30;;
14470;SDS011;7321;50.802;4.336;2023-05-07T04:17:05;9.48;;;4.50;;
14470;SDS011;7321;50.802;4.336;2023-05-07T04:19:33;7.97;;;4.25;;
14470;SDS011;7321;50.802;4.336;2023-05-07T04:22:01;9.85;;;4.47;;
14470;SDS011;7321;50.802;4.336;2023-05-07T04:24:32;5.75;;;3.50;;
14470;SDS011;7321;50.802;4.336;2023-05-07T04:26:58;9.73;;;3.90;;
14470;SDS011;7321;50.802;4.336;2023-05-07T04:29:26;6.25;;;3.83;;
14470;SDS011;7321;50.802;4.336;2023-05-07T04:31:54;7.45;;;3.80;;
14470;SDS011;7321;50.802;4.336;2023-05-07T04:34:22;5.38;;;3.92;;
14470;SDS011;7321;50.802;4.336;2023-05-07T04:36:49;11.73;;;4.03;;
14470;SDS011;7321;50.802;4.336;2023-05-07T04:39:16;7.07;;;4.35;;
14470;SDS011;7321;50.802;4.336;2023-05-07T04:41:45;8.57;;;4.55;;
14470;SDS011;7321;50.802;4.336;2023-05-07T04:44:13;8.38;;;4.25;;
14470;SDS011;7321;50.802;4.336;2023-05-07T04:46:40;9.32;;;4.40;;
14470;SDS011;7321;50.802;4.336;2023-05-07T04:49:07;6.70;;;4.13;;
14470;SDS011;7321;50.802;4.336;2023-05-07T04:51:36;6.50;;;4.22;;
14470;SDS011;7321;50.802;4.336;2023-05-07T04:54:05;5.75;;;4.20;;
14470;SDS011;7321;50.802;4.336;2023-05-07T04:56:35;7.38;;;4.07;;
14470;SDS011;7321;50.802;4.336;2023-05-07T04:59:01;8.77;;;5.60;;
14470;SDS011;7321;50.802;4.336;2023-05-07T05:01:28;7.82;;;4.45;;
14470;SDS011;7321;50.802;4.336;2023-05-07T05:03:56;8.50;;;4.05;;
14470;SDS011;7321;50.802;4.336;2023-05-07T05:06:24;6.68;;;3.80;;
14470;SDS011;7321;50.802;4.336;2023-05-07T05:08:52;7.32;;;3.78;;
14470;SDS011;7321;50.802;4.336;2023-05-07T05:11:21;9.65;;;3.88;;
14470;SDS011;7321;50.802;4.336;2023-05-07T05:13:47;7.85;;;4.32;;
14470;SDS011;7321;50.802;4.336;2023-05-07T05:16:16;9.68;;;4.40;;
14470;SDS011;7321;50.802;4.336;2023-05-07T05:18:45;8.13;;;4.18;;
14470;SDS011;7321;50.802;4.336;2023-05-07T05:21:13;7.75;;;4.75;;
14470;SDS011;7321;50.802;4.336;2023-05-07T05:23:45;7.78;;;4.18;;
14470;SDS011;7321;50.802;4.336;2023-05-07T05:26:11;9.10;;;4.70;;
14470;SDS011;7321;50.802;4.336;2023-05-07T05:28:38;8.07;;;4.63;;
14470;SDS011;7321;50.802;4.336;2023-05-07T05:31:07;10.98;;;4.78;;
14470;SDS011;7321;50.802;4.336;2023-05-07T05:33:33;7.97;;;4.63;;
14470;SDS011;7321;50.802;4.336;2023-05-07T05:35:59;6.60;;;4.40;;
14470;SDS011;7321;50.802;4.336;2023-05-07T05:38:25;7.93;;;4.57;;
14470;SDS011;7321;50.802;4.336;2023-05-07T05:40:52;11.52;;;4.80;;
14470;SDS011;7321;50.802;4.336;2023-05-07T05:43:18;6.85;;;4.82;;
14470;SDS011;7321;50.802;4.336;2023-05-07T05:45:45;9.60;;;5.32;;
14470;SDS011;7321;50.802;4.336;2023-05-07T05:48:13;7.63;;;4.85;;
14470;SDS011;7321;50.802;4.336;2023-05-07T05:50:42;9.95;;;4.70;;
14470;SDS011;7321;50.802;4.336;2023-05-07T05:53:08;8.35;;;5.75;;
14470;SDS011;7321;50.802;4.336;2023-05-07T05:55:36;7.97;;;5.47;;
14470;SDS011;7321;50.802;4.336;2023-05-07T05:58:06;7.85;;;5.80;;
14470;SDS011;7321;50.802;4.336;2023-05-07T06:00:33;8.43;;;5.95;;
14470;SDS011;7321;50.802;4.336;2023-05-07T06:03:02;8.27;;;6.25;;
14470;SDS011;7321;50.802;4.336;2023-05-07T06:05:28;8.00;;;6.15;;
14470;SDS011;7321;50.802;4.336;2023-05-07T06:07:54;8.15;;;6.00;;
14470;SDS011;7321;50.802;4.336;2023-05-07T06:10:23;9.13;;;6.30;;
14470;SDS011;7321;50.802;4.336;2023-05-07T06:12:51;7.68;;;6.30;;
14470;SDS011;7321;50.802;4.336;2023-05-07T06:15:18;9.77;;;6.72;;
14470;SDS011;7321;50.802;4.336;2023-05-07T06:17:44;10.48;;;6.32;;
14470;SDS011;7321;50.802;4.336;2023-05-07T06:20:11;8.85;;;6.65;;
14470;SDS011;7321;50.802;4.336;2023-05-07T06:22:37;10.27;;;7.68;;
14470;SDS011;7321;50.802;4.336;2023-05-07T06:25:05;12.15;;;7.45;;
14470;SDS011;7321;50.802;4.336;2023-05-07T06:27:33;10.73;;;6.85;;
14470;SDS011;7321;50.802;4.336;2023-05-07T06:30:01;7.80;;;7.00;;
14470;SDS011;7321;50.802;4.336;2023-05-07T06:32:30;10.27;;;7.35;;
14470;SDS011;7321;50.802;4.336;2023-05-07T06:34:55;11.98;;;7.35;;
14470;SDS011;7321;50.802;4.336;2023-05-07T06:37:24;12.55;;;7.38;;
14470;SDS011;7321;50.802;4.336;2023-05-07T06:39:51;8.27;;;6.80;;
14470;SDS011;7321;50.802;4.336;2023-05-07T06:42:18;11.32;;;6.70;;
14470;SDS011;7321;50.802;4.336;2023-05-07T06:44:46;11.40;;;7.07;;
14470;SDS011;7321;50.802;4.336;2023-05-07T06:47:13;13.35;;;7.68;;
14470;SDS011;7321;50.802;4.336;2023-05-07T06:49:40;10.25;;;6.88;;
14470;SDS011;7321;50.802;4.336;2023-05-07T06:52:07;11.27;;;6.45;;
14470;SDS011;7321;50.802;4.336;2023-05-07T06:54:34;7.78;;;6.25;;
14470;SDS011;7321;50.802;4.336;2023-05-07T06:57:04;10.18;;;7.28;;
14470;SDS011;7321;50.802;4.336;2023-05-07T06:59:32;9.77;;;7.10;;
14470;SDS011;7321;50.802;4.336;2023-05-07T07:01:58;9.35;;;6.63;;
14470;SDS011;7321;50.802;4.336;2023-05-07T07:04:26;9.05;;;6.72;;
14470;SDS011;7321;50.802;4.336;2023-05-07T07:06:55;9.48;;;7.25;;
14470;SDS011;7321;50.802;4.336;2023-05-07T07:09:24;10.20;;;7.28;;
14470;SDS011;7321;50.802;4.336;2023-05-07T07:11:55;7.90;;;6.72;;
14470;SDS011;7321;50.802;4.336;2023-05-07T07:14:22;12.15;;;7.07;;
14470;SDS011;7321;50.802;4.336;2023-05-07T07:16:48;9.73;;;7.25;;
14470;SDS011;7321;50.802;4.336;2023-05-07T07:19:16;9.90;;;6.75;;
14470;SDS011;7321;50.802;4.336;2023-05-07T07:21:45;9.68;;;6.78;;
14470;SDS011;7321;50.802;4.336;2023-05-07T07:24:15;9.20;;;6.20;;
14470;SDS011;7321;50.802;4.336;2023-05-07T07:26:45;10.57;;;6.93;;
14470;SDS011;7321;50.802;4.336;2023-05-07T07:29:12;10.35;;;6.88;;
14470;SDS011;7321;50.802;4.336;2023-05-07T07:31:40;9.15;;;6.43;;
14470;SDS011;7321;50.802;4.336;2023-05-07T07:34:08;7.22;;;6.05;;
14470;SDS011;7321;50.802;4.336;2023-05-07T07:36:34;7.25;;;5.90;;
14470;SDS011;7321;50.802;4.336;2023-05-07T07:39:01;8.63;;;6.93;;
14470;SDS011;7321;50.802;4.336;2023-05-07T07:41:28;9.02;;;6.93;;
14470;SDS011;7321;50.802;4.336;2023-05-07T07:43:55;9.75;;;7.95;;
14470;SDS011;7321;50.802;4.336;2023-05-07T07:46:21;9.60;;;7.10;;
14470;SDS011;7321;50.802;4.336;2023-05-07T07:48:50;9.70;;;7.10;;
14470;SDS011;7321;50.802;4.336;2023-05-07T07:51:17;9.05;;;6.07;;
14470;SDS011;7321;50.802;4.336;2023-05-07T07:53:45;9.05;;;6.75;;
14470;SDS011;7321;50.802;4.336;2023-05-07T07:56:11;8.38;;;6.22;;
14470;SDS011;7321;50.802;4.336;2023-05-07T07:58:39;9.93;;;6.90;;
14470;SDS011;7321;50.802;4.336;2023-05-07T08:01:06;8.18;;;6.65;;
14470;SDS011;7321;50.802;4.336;2023-05-07T08:03:32;9.73;;;6.75;;
14470;SDS011;7321;50.802;4.336;2023-05-07T08:05:58;9.88;;;7.60;;
14470;SDS011;7321;50.802;4.336;2023-05-07T08:08:26;8.98;;;7.18;;
14470;SDS011;7321;50.802;4.336;2023-05-07T08:10:52;11.77;;;8.23;;
14470;SDS011;7321;50.802;4.336;2023-05-07T08:13:20;8.65;;;7.00;;
14470;SDS011;7321;50.802;4.336;2023-05-07T08:15:50;7.30;;;6.43;;
14470;SDS011;7321;50.802;4.336;2023-05-07T08:18:17;8.82;;;6.25;;
14470;SDS011;7321;50.802;4.336;2023-05-07T08:20:47;8.00;;;6.32;;
14470;SDS011;7321;50.802;4.336;2023-05-07T08:23:16;7.50;;;6.43;;
14470;SDS011;7321;50.802;4.336;2023-05-07T08:25:46;8.70;;;6.47;;
14470;SDS011;7321;50.802;4.336;2023-05-07T08:28:12;7.65;;;6.47;;
14470;SDS011;7321;50.802;4.336;2023-05-07T08:30:39;12.55;;;9.85;;
14470;SDS011;7321;50.802;4.336;2023-05-07T08:33:08;8.95;;;6.10;;
14470;SDS011;7321;50.802;4.336;2023-05-07T08:35:35;11.55;;;9.23;;
14470;SDS011;7321;50.802;4.336;2023-05-07T08:38:01;6.35;;;5.30;;
14470;SDS011;7321;50.802;4.336;2023-05-07T08:40:28;8.32;;;7.18;;
14470;SDS011;7321;50.802;4.336;2023-05-07T08:42:58;6.72;;;5.32;;
14470;SDS011;7321;50.802;4.336;2023-05-07T08:45:26;7.68;;;5.03;;
14470;SDS011;7321;50.802;4.336;2023-05-07T08:47:57;9.52;;;5.93;;
14470;SDS011;7321;50.802;4.336;2023-05-07T08:50:26;6.68;;;5.43;;
14470;SDS011;7321;50.802;4.336;2023-05-07T08:52:56;8.43;;;5.50;;
14470;SDS011;7321;50.802;4.336;2023-05-07T08:55:23;5.95;;;5.45;;
14470;SDS011;7321;50.802;4.336;2023-05-07T08:57:50;6.95;;;5.50;;
14470;SDS011;7321;50.802;4.336;2023-05-07T09:00:18;6.43;;;5.70;;
14470;SDS011;7321;50.802;4.336;2023-05-07T09:02:46;8.05;;;5.60;;
14470;SDS011;7321;50.802;4.336;2023-05-07T09:05:13;7.50;;;5.60;;
14470;SDS011;7321;50.802;4.336;2023-05-07T09:07:41;8.32;;;5.53;;
14470;SDS011;7321;50.802;4.336;2023-05-07T09:10:08;6.53;;;5.50;;
14470;SDS011;7321;50.802;4.336;2023-05-07T09:12:35;7.32;;;4.95;;
14470;SDS011;7321;50.802;4.336;2023-05-07T09:15:03;7.72;;;4.65;;
14470;SDS011;7321;50.802;4.336;2023-05-07T09:17:31;5.70;;;4.05;;
14470;SDS011;7321;50.802;4.336;2023-05-07T09:20:03;4.88;;;4.00;;
14470;SDS011;7321;50.802;4.336;2023-05-07T09:22:32;6.47;;;4.72;;
14470;SDS011;7321;50.802;4.336;2023-05-07T09:24:58;5.72;;;4.50;;
14470;SDS011;7321;50.802;4.336;2023-05-07T09:27:26;6.80;;;5.15;;
14470;SDS011;7321;50.802;4.336;2023-05-07T09:29:55;7.53;;;5.82;;
14470;SDS011;7321;50.802;4.336;2023-05-07T09:32:21;8.07;;;6.00;;
14470;SDS011;7321;50.802;4.336;2023-05-07T09:34:50;6.55;;;5.68;;
14470;SDS011;7321;50.802;4.336;2023-05-07T09:37:17;7.70;;;5.40;;
14470;SDS011;7321;50.802;4.336;2023-05-07T09:39:48;6.00;;;5.40;;
14470;SDS011;7321;50.802;4.336;2023-05-07T09:42:23;7.03;;;5.55;;
14470;SDS011;7321;50.802;4.336;2023-05-07T09:44:51;4.95;;;4.35;;
14470;SDS011;7321;50.802;4.336;2023-05-07T09:47:18;6.00;;;4.15;;
14470;SDS011;7321;50.802;4.336;2023-05-07T09:49:49;5.88;;;4.50;;
14470;SDS011;7321;50.802;4.336;2023-05-07T09:52:18;6.00;;;4.47;;
14470;SDS011;7321;50.802;4.336;2023-05-07T09:54:45;5.30;;;4.68;;
14470;SDS011;7321;50.802;4.336;2023-05-07T09:57:16;5.38;;;4.75;;
14470;SDS011;7321;50.802;4.336;2023-05-07T09:59:47;5.68;;;5.13;;
14470;SDS011;7321;50.802;4.336;2023-05-07T10:02:15;5.93;;;5.32;;
14470;SDS011;7321;50.802;4.336;2023-05-07T10:04:43;7.80;;;6.50;;
14470;SDS011;7321;50.802;4.336;2023-05-07T10:07:14;8.02;;;5.45;;
14470;SDS011;7321;50.802;4.336;2023-05-07T10:09:44;6.75;;;5.20;;
14470;SDS011;7321;50.802;4.336;2023-05-07T10:12:12;6.40;;;4.78;;
14470;SDS011;7321;50.802;4.336;2023-05-07T10:14:39;4.93;;;4.47;;
14470;SDS011;7321;50.802;4.336;2023-05-07T10:17:06;6.28;;;3.42;;
14470;SDS011;7321;50.802;4.336;2023-05-07T10:19:33;4.32;;;3.80;;
14470;SDS011;7321;50.802;4.336;2023-05-07T10:22:05;4.32;;;3.92;;
14470;SDS011;7321;50.802;4.336;2023-05-07T10:24:32;7.00;;;4.57;;
14470;SDS011;7321;50.802;4.336;2023-05-07T10:27:02;7.32;;;4.18;;
14470;SDS011;7321;50.802;4.336;2023-05-07T10:34:48;6.07;;;3.70;;
14470;SDS011;7321;50.802;4.336;2023-05-07T10:37:18;3.53;;;3.22;;
14470;SDS011;7321;50.802;4.336;2023-05-07T10:39:47;5.25;;;3.67;;
14470;SDS011;7321;50.802;4.336;2023-05-07T10:42:14;4.18;;;3.70;;
14470;SDS011;7321;50.802;4.336;2023-05-07T10:44:40;4.43;;;4.00;;
14470;SDS011;7321;50.802;4.336;2023-05-07T10:47:09;5.07;;;3.92;;
14470;SDS011;7321;50.802;4.336;2023-05-07T10:52:19;5.85;;;5.32;;
14470;SDS011;7321;50.802;4.336;2023-05-07T10:54:48;13.95;;;11.07;;
14470;SDS011;7321;50.802;4.336;2023-05-07T10:57:40;8.60;;;6.95;;
14470;SDS011;7321;50.802;4.336;2023-05-07T11:00:55;7.32;;;6.07;;
14470;SDS011;7321;50.802;4.336;2023-05-07T11:05:28;4.80;;;3.83;;
14470;SDS011;7321;50.802;4.336;2023-05-07T11:07:58;5.10;;;3.70;;
14470;SDS011;7321;50.802;4.336;2023-05-07T11:13:14;3.83;;;3.53;;
14470;SDS011;7321;50.802;4.336;2023-05-07T11:15:41;4.88;;;3.30;;
14470;SDS011;7321;50.802;4.336;2023-05-07T11:18:12;3.72;;;3.40;;
14470;SDS011;7321;50.802;4.336;2023-05-07T11:26:31;3.97;;;3.38;;
14470;SDS011;7321;50.802;4.336;2023-05-07T11:28:50;4.97;;;3.67;;
14470;SDS011;7321;50.802;4.336;2023-05-07T11:31:21;4.35;;;3.70;;
14470;SDS011;7321;50.802;4.336;2023-05-07T11:33:53;5.30;;;3.70;;
14470;SDS011;7321;50.802;4.336;2023-05-07T11:36:21;5.38;;;4.85;;
14470;SDS011;7321;50.802;4.336;2023-05-07T11:38:48;6.22;;;3.47;;
14470;SDS011;7321;50.802;4.336;2023-05-07T11:41:15;3.97;;;3.50;;
14470;SDS011;7321;50.802;4.336;2023-05-07T11:43:55;4.35;;;3.28;;
14470;SDS011;7321;50.802;4.336;2023-05-07T11:46:22;3.80;;;3.35;;
14470;SDS011;7321;50.802;4.336;2023-05-07T11:48:48;4.82;;;3.63;;
14470;SDS011;7321;50.802;4.336;2023-05-07T11:51:18;4.55;;;3.38;;
14470;SDS011;7321;50.802;4.336;2023-05-07T11:53:48;4.40;;;3.70;;
14470;SDS011;7321;50.802;4.336;2023-05-07T11:56:15;4.32;;;3.45;;
14470;SDS011;7321;50.802;4.336;2023-05-07T11:58:43;5.57;;;3.75;;
14470;SDS011;7321;50.802;4.336;2023-05-07T12:01:12;4.18;;;3.78;;
14470;SDS011;7321;50.802;4.336;2023-05-07T12:03:42;3.72;;;2.88;;
14470;SDS011;7321;50.802;4.336;2023-05-07T12:06:11;3.67;;;3.38;;
14470;SDS011;7321;50.802;4.336;2023-05-07T12:08:38;4.60;;;3.75;;
14470;SDS011;7321;50.802;4.336;2023-05-07T12:11:09;3.60;;;3.30;;
14470;SDS011;7321;50.802;4.336;2023-05-07T12:13:38;4.45;;;4.07;;
14470;SDS011;7321;50.802;4.336;2023-05-07T12:16:05;9.43;;;8.55;;
14470;SDS011;7321;50.802;4.336;2023-05-07T12:18:32;4.43;;;4.07;;
14470;SDS011;7321;50.802;4.336;2023-05-07T12:21:00;4.43;;;4.03;;
14470;SDS011;7321;50.802;4.336;2023-05-07T12:23:26;5.60;;;4.95;;
14470;SDS011;7321;50.802;4.336;2023-05-07T12:25:53;5.43;;;4.93;;
14470;SDS011;7321;50.802;4.336;2023-05-07T12:28:19;5.63;;;5.13;;
14470;SDS011;7321;50.802;4.336;2023-05-07T12:30:46;6.63;;;6.03;;
14470;SDS011;7321;50.802;4.336;2023-05-07T12:33:16;6.50;;;5.95;;
14470;SDS011;7321;50.802;4.336;2023-05-07T12:35:43;7.15;;;6.45;;
14470;SDS011;7321;50.802;4.336;2023-05-07T12:38:10;8.63;;;7.82;;
14470;SDS011;7321;50.802;4.336;2023-05-07T12:40:42;8.90;;;7.93;;
14470;SDS011;7321;50.802;4.336;2023-05-07T12:45:55;7.70;;;6.97;;
14470;SDS011;7321;50.802;4.336;2023-05-07T12:48:22;8.73;;;7.93;;
14470;SDS011;7321;50.802;4.336;2023-05-07T12:50:55;8.13;;;7.40;;
14470;SDS011;7321;50.802;4.336;2023-05-07T12:53:23;8.13;;;7.35;;
14470;SDS011;7321;50.802;4.336;2023-05-07T12:55:52;8.02;;;7.32;;
14470;SDS011;7321;50.802;4.336;2023-05-07T13:00:56;8.50;;;7.70;;
14470;SDS011;7321;50.802;4.336;2023-05-07T13:03:29;7.60;;;6.82;;
14470;SDS011;7321;50.802;4.336;2023-05-07T13:06:00;8.57;;;7.78;;
14470;SDS011;7321;50.802;4.336;2023-05-07T13:10:53;12.55;;;10.65;;
14470;SDS011;7321;50.802;4.336;2023-05-07T13:13:20;13.82;;;11.18;;
14470;SDS011;7321;50.802;4.336;2023-05-07T13:15:47;9.07;;;8.27;;
14470;SDS011;7321;50.802;4.336;2023-05-07T13:18:13;9.63;;;8.75;;
14470;SDS011;7321;50.802;4.336;2023-05-07T13:20:39;9.98;;;8.98;;
14470;SDS011;7321;50.802;4.336;2023-05-07T13:23:05;11.57;;;10.48;;
14470;SDS011;7321;50.802;4.336;2023-05-07T13:25:31;10.70;;;9.70;;
14470;SDS011;7321;50.802;4.336;2023-05-07T13:27:57;11.02;;;9.98;;
14470;SDS011;7321;50.802;4.336;2023-05-07T13:30:23;11.63;;;10.60;;
14470;SDS011;7321;50.802;4.336;2023-05-07T13:32:49;11.05;;;9.95;;
14470;SDS011;7321;50.802;4.336;2023-05-07T13:35:17;11.63;;;10.50;;
14470;SDS011;7321;50.802;4.336;2023-05-07T13:37:43;11.68;;;10.52;;
14470;SDS011;7321;50.802;4.336;2023-05-07T13:40:09;11.35;;;10.25;;
14470;SDS011;7321;50.802;4.336;2023-05-07T13:42:35;9.98;;;8.95;;
14470;SDS011;7321;50.802;4.336;2023-05-07T13:45:01;10.35;;;8.63;;
14470;SDS011;7321;50.802;4.336;2023-05-07T13:47:30;9.80;;;9.00;;
14470;SDS011;7321;50.802;4.336;2023-05-07T13:49:56;10.18;;;9.20;;
14470;SDS011;7321;50.802;4.336;2023-05-07T13:52:22;9.85;;;8.95;;
14470;SDS011;7321;50.802;4.336;2023-05-07T13:54:48;10.00;;;9.10;;
14470;SDS011;7321;50.802;4.336;2023-05-07T13:57:14;10.60;;;9.50;;
14470;SDS011;7321;50.802;4.336;2023-05-07T13:59:42;11.15;;;10.15;;
14470;SDS011;7321;50.802;4.336;2023-05-07T14:02:08;10.90;;;9.90;;
14470;SDS011;7321;50.802;4.336;2023-05-07T14:04:34;10.88;;;9.88;;
14470;SDS011;7321;50.802;4.336;2023-05-07T14:07:00;11.60;;;10.50;;
14470;SDS011;7321;50.802;4.336;2023-05-07T14:09:26;9.80;;;8.90;;
14470;SDS011;7321;50.802;4.336;2023-05-07T14:11:52;9.23;;;8.48;;
14470;SDS011;7321;50.802;4.336;2023-05-07T14:14:18;10.43;;;9.43;;
14470;SDS011;7321;50.802;4.336;2023-05-07T14:16:45;9.68;;;8.77;;
14470;SDS011;7321;50.802;4.336;2023-05-07T14:19:11;9.80;;;8.90;;
14470;SDS011;7321;50.802;4.336;2023-05-07T14:21:37;10.70;;;9.65;;
14470;SDS011;7321;50.802;4.336;2023-05-07T14:24:07;9.80;;;8.98;;
14470;SDS011;7321;50.802;4.336;2023-05-07T14:26:35;10.77;;;9.68;;
14470;SDS011;7321;50.802;4.336;2023-05-07T14:29:02;10.25;;;9.45;;
14470;SDS011;7321;50.802;4.336;2023-05-07T14:31:28;21.42;;;17.23;;
14470;SDS011;7321;50.802;4.336;2023-05-07T14:33:54;24.92;;;19.05;;
14470;SDS011;7321;50.802;4.336;2023-05-07T14:36:23;12.27;;;11.27;;
14470;SDS011;7321;50.802;4.336;2023-05-07T14:38:51;13.68;;;12.35;;
14470;SDS011;7321;50.802;4.336;2023-05-07T14:41:19;16.48;;;14.77;;
14470;SDS011;7321;50.802;4.336;2023-05-07T14:43:46;15.95;;;14.10;;
14470;SDS011;7321;50.802;4.336;2023-05-07T14:46:18;14.70;;;13.20;;
14470;SDS011;7321;50.802;4.336;2023-05-07T14:48:44;18.05;;;16.15;;
14470;SDS011;7321;50.802;4.336;2023-05-07T14:51:11;16.35;;;14.65;;
14470;SDS011;7321;50.802;4.336;2023-05-07T14:53:38;20.10;;;16.80;;
14470;SDS011;7321;50.802;4.336;2023-05-07T14:56:06;13.50;;;12.20;;
14470;SDS011;7321;50.802;4.336;2023-05-07T14:58:32;20.27;;;16.23;;
14470;SDS011;7321;50.802;4.336;2023-05-07T15:00:59;17.73;;;13.55;;
14470;SDS011;7321;50.802;4.336;2023-05-07T15:03:25;23.60;;;17.58;;
14470;SDS011;7321;50.802;4.336;2023-05-07T15:05:51;24.00;;;17.98;;
14470;SDS011;7321;50.802;4.336;2023-05-07T15:08:17;11.90;;;10.70;;
14470;SDS011;7321;50.802;4.336;2023-05-07T15:10:43;9.43;;;8.63;;
14470;SDS011;7321;50.802;4.336;2023-05-07T15:13:10;10.52;;;9.45;;
14470;SDS011;7321;50.802;4.336;2023-05-07T15:15:38;10.38;;;9.32;;
14470;SDS011;7321;50.802;4.336;2023-05-07T15:18:04;13.05;;;11.75;;
14470;SDS011;7321;50.802;4.336;2023-05-07T15:20:30;15.45;;;12.65;;
14470;SDS011;7321;50.802;4.336;2023-05-07T15:22:56;16.40;;;14.43;;
14470;SDS011;7321;50.802;4.336;2023-05-07T15:25:23;13.13;;;10.75;;
14470;SDS011;7321;50.802;4.336;2023-05-07T15:27:49;14.10;;;12.68;;